YRTXU LRCV-LRCV
Flight info
| Callsign | YRTXU |
|---|---|
| Flight time | 0h 4m |
| Altitude | 1600 |
| Route | PEMOK |
| Aircraft | C182/L-SDGRY/S |
Departure
| Time | 2026-04-25 16:23 |
|---|---|
| Airport | Craiova International Airport (LRCV) |
Arrival
| Time | 2026-04-25 16:28 |
|---|---|
| Airport | Craiova International Airport (LRCV) |
| Time | Latitude | Longitude | Altitude | Speed | Heading |
|---|---|---|---|---|---|
| 2026-04-25 16:21 | 44.31838 | 23.90356 | 625 ft | 0 kts | 270° |
| 2026-04-25 16:22 | 44.31838 | 23.90351 | 625 ft | 6 kts | 271° |
| 2026-04-25 16:22 | 44.31833 | 23.90014 | 626 ft | 62 kts | 268° |
| 2026-04-25 16:23 | 44.31820 | 23.89264 | 731 ft | 88 kts | 271° |
| 2026-04-25 16:23 | 44.31822 | 23.88438 | 1076 ft | 83 kts | 278° |
| 2026-04-25 16:23 | 44.32315 | 23.88087 | 1263 ft | 105 kts | 9° |
| 2026-04-25 16:23 | 44.33051 | 23.88354 | 1468 ft | 113 kts | 11° |
| 2026-04-25 16:24 | 44.33789 | 23.88679 | 1657 ft | 107 kts | 13° |
| 2026-04-25 16:24 | 44.34503 | 23.89081 | 1699 ft | 114 kts | 30° |
| 2026-04-25 16:24 | 44.34830 | 23.89670 | 1707 ft | 123 kts | 70° |
| 2026-04-25 16:24 | 44.34780 | 23.90850 | 1769 ft | 122 kts | 101° |
| 2026-04-25 16:25 | 44.34497 | 23.92401 | 1832 ft | 123 kts | 109° |
| 2026-04-25 16:25 | 44.34409 | 23.92769 | 1832 ft | 124 kts | 108° |
| 2026-04-25 16:25 | 44.33859 | 23.94639 | 1811 ft | 121 kts | 130° |
| 2026-04-25 16:25 | 44.33156 | 23.95236 | 1721 ft | 118 kts | 173° |
| 2026-04-25 16:26 | 44.32631 | 23.95335 | 1599 ft | 112 kts | 180° |
| 2026-04-25 16:26 | 44.31966 | 23.95193 | 1472 ft | 87 kts | 233° |
| 2026-04-25 16:26 | 44.31856 | 23.94451 | 1300 ft | 77 kts | 271° |
| 2026-04-25 16:26 | 44.31891 | 23.93722 | 1191 ft | 75 kts | 270° |
| 2026-04-25 16:27 | 44.31895 | 23.93009 | 1152 ft | 73 kts | 266° |
| 2026-04-25 16:27 | 44.31870 | 23.92287 | 1037 ft | 75 kts | 266° |
| 2026-04-25 16:27 | 44.31848 | 23.91539 | 902 ft | 78 kts | 269° |
| 2026-04-25 16:27 | 44.31840 | 23.90784 | 757 ft | 78 kts | 268° |
| 2026-04-25 16:28 | 44.31834 | 23.90052 | 630 ft | 69 kts | 269° |
| 2026-04-25 16:28 | 44.31826 | 23.89497 | 629 ft | 48 kts | 269° |
| 2026-04-25 16:28 | 44.31820 | 23.89033 | 626 ft | 64 kts | 269° |
| 2026-04-25 16:28 | 44.31805 | 23.88286 | 819 ft | 79 kts | 270° |
| 2026-04-25 16:29 | 44.31945 | 23.87507 | 1030 ft | 96 kts | 319° |
| 2026-04-25 16:29 | 44.32588 | 23.87431 | 1417 ft | 92 kts | 356° |
| 2026-04-25 16:29 | 44.33277 | 23.87445 | 1625 ft | 95 kts | 355° |
| 2026-04-25 16:29 | 44.33982 | 23.87463 | 1658 ft | 106 kts | 356° |
| 2026-04-25 16:30 | 44.34701 | 23.87518 | 1801 ft | 103 kts | 4° |
| 2026-04-25 16:30 | 44.35225 | 23.88259 | 1813 ft | 123 kts | 73° |
| 2026-04-25 16:30 | 44.35230 | 23.89431 | 1857 ft | 122 kts | 94° |
| 2026-04-25 16:30 | 44.35174 | 23.90589 | 1900 ft | 122 kts | 94° |
| 2026-04-25 16:31 | 44.35116 | 23.91819 | 1809 ft | 124 kts | 92° |
| 2026-04-25 16:31 | 44.35046 | 23.93077 | 1736 ft | 134 kts | 96° |
| 2026-04-25 16:31 | 44.34946 | 23.94379 | 1748 ft | 138 kts | 95° |
| 2026-04-25 16:31 | 44.34847 | 23.95693 | 1804 ft | 132 kts | 103° |
| 2026-04-25 16:32 | 44.34312 | 23.96660 | 1776 ft | 123 kts | 160° |
| 2026-04-25 16:32 | 44.33531 | 23.96785 | 1674 ft | 114 kts | 190° |
| 2026-04-25 16:32 | 44.32762 | 23.96665 | 1631 ft | 107 kts | 193° |
| 2026-04-25 16:32 | 44.32168 | 23.96298 | 1610 ft | 88 kts | 241° |
| 2026-04-25 16:33 | 44.31935 | 23.95532 | 1420 ft | 84 kts | 259° |
| 2026-04-25 16:33 | 44.31863 | 23.94768 | 1307 ft | 76 kts | 272° |
| 2026-04-25 16:33 | 44.31857 | 23.94057 | 1237 ft | 72 kts | 270° |
| 2026-04-25 16:33 | 44.31881 | 23.93337 | 1139 ft | 76 kts | 268° |
| 2026-04-25 16:34 | 44.31873 | 23.92585 | 1057 ft | 81 kts | 265° |
| 2026-04-25 16:34 | 44.31855 | 23.91792 | 920 ft | 81 kts | 270° |
| 2026-04-25 16:34 | 44.31843 | 23.91021 | 791 ft | 79 kts | 269° |
| 2026-04-25 16:34 | 44.31835 | 23.90264 | 661 ft | 76 kts | 269° |
| 2026-04-25 16:35 | 44.31828 | 23.89620 | 628 ft | 55 kts | 269° |
| 2026-04-25 16:35 | 44.31823 | 23.89178 | 628 ft | 39 kts | 269° |
| 2026-04-25 16:35 | 44.31817 | 23.88757 | 626 ft | 63 kts | 269° |
| 2026-04-25 16:35 | 44.31811 | 23.88042 | 834 ft | 78 kts | 270° |
| 2026-04-25 16:36 | 44.31953 | 23.87301 | 1044 ft | 94 kts | 313° |
| 2026-04-25 16:36 | 44.32152 | 23.87146 | 1111 ft | 102 kts | 341° |
| 2026-04-25 16:36 | 44.33299 | 23.87349 | 1648 ft | 104 kts | 8° |
| 2026-04-25 16:36 | 44.34036 | 23.87629 | 1696 ft | 111 kts | 11° |
| 2026-04-25 16:37 | 44.34752 | 23.87951 | 1812 ft | 110 kts | 20° |
| 2026-04-25 16:37 | 44.35247 | 23.88755 | 1922 ft | 119 kts | 77° |
| 2026-04-25 16:37 | 44.35034 | 23.89862 | 1975 ft | 120 kts | 111° |
| 2026-04-25 16:37 | 44.34874 | 23.91068 | 1904 ft | 129 kts | 98° |
| 2026-04-25 16:38 | 44.34755 | 23.92332 | 1806 ft | 134 kts | 94° |
| 2026-04-25 16:38 | 44.34672 | 23.93620 | 1784 ft | 133 kts | 93° |
| 2026-04-25 16:38 | 44.34623 | 23.94880 | 1887 ft | 128 kts | 90° |
| 2026-04-25 16:38 | 44.34592 | 23.96150 | 1885 ft | 132 kts | 91° |
| 2026-04-25 16:39 | 44.34421 | 23.97362 | 1887 ft | 128 kts | 122° |
| 2026-04-25 16:39 | 44.33720 | 23.98008 | 1859 ft | 119 kts | 176° |
| 2026-04-25 16:39 | 44.32899 | 23.98046 | 1719 ft | 111 kts | 187° |
| 2026-04-25 16:39 | 44.32228 | 23.97844 | 1630 ft | 92 kts | 226° |
| 2026-04-25 16:40 | 44.31986 | 23.97123 | 1590 ft | 77 kts | 259° |
| 2026-04-25 16:40 | 44.31898 | 23.96429 | 1556 ft | 72 kts | 266° |
| 2026-04-25 16:40 | 44.31863 | 23.95734 | 1476 ft | 72 kts | 270° |
| 2026-04-25 16:40 | 44.31811 | 23.95035 | 1409 ft | 68 kts | 263° |
| 2026-04-25 16:41 | 44.31833 | 23.94343 | 1298 ft | 74 kts | 275° |
| 2026-04-25 16:41 | 44.31856 | 23.93866 | 1252 ft | 74 kts | 272° |
| 2026-04-25 16:41 | 44.31873 | 23.92191 | 1053 ft | 77 kts | 266° |
| 2026-04-25 16:42 | 44.31858 | 23.91448 | 911 ft | 76 kts | 268° |
| 2026-04-25 16:42 | 44.31846 | 23.90711 | 769 ft | 77 kts | 269° |
| 2026-04-25 16:42 | 44.31832 | 23.89984 | 636 ft | 69 kts | 271° |
| 2026-04-25 16:42 | 44.31826 | 23.89427 | 630 ft | 47 kts | 270° |
| 2026-04-25 16:43 | 44.31821 | 23.89053 | 626 ft | 33 kts | 269° |
| 2026-04-25 16:43 | 44.31816 | 23.88764 | 626 ft | 28 kts | 271° |
| 2026-04-25 16:43 | 44.31813 | 23.88498 | 624 ft | 26 kts | 271° |
| 2026-04-25 16:43 | 44.31810 | 23.88268 | 630 ft | 22 kts | 269° |
| 2026-04-25 16:44 | 44.31807 | 23.88059 | 626 ft | 22 kts | 269° |
| 2026-04-25 16:44 | 44.31783 | 23.87857 | 631 ft | 22 kts | 218° |
| 2026-04-25 16:44 | 44.31612 | 23.87841 | 628 ft | 27 kts | 179° |
| 2026-04-25 16:44 | 44.31442 | 23.87843 | 625 ft | 22 kts | 180° |
| 2026-04-25 16:45 | 44.31335 | 23.87833 | 625 ft | 7 kts | 246° |
| 2026-04-25 16:45 | 44.31335 | 23.87780 | 625 ft | 5 kts | 270° |
| 2026-04-25 16:45 | 44.31335 | 23.87777 | 625 ft | 0 kts | 270° |
| 2026-04-25 16:45 | 44.31335 | 23.87774 | 625 ft | 2 kts | 268° |
| 2026-04-25 16:46 | 44.31335 | 23.87773 | 625 ft | 0 kts | 269° |